Aberdeen, SD

3:15 PM CDT on September 21, 2014 (GMT -0500)
Aberdeen Regional | Change Station
CLOSE
Current Station
Airport
Location: Aberdeen,
Elevation: 1299 ft
Nearby Weather Stations

Elev 1299 ft 45.44 °N, 98.41 °W | Updated 22 minutes ago

Mostly Cloudy
Mostly Cloudy
69 °F
Feels Like 69 °F
N
7
Wind Variable Wind from North

Today
High -- | Low -- °F
--% Chance of Precip.
Yesterday
High -- | Low -- °F
Precip. -- in
7:19 AM 7:33 PM
Waning Crescent, 5% visible
Pressure 30.25 in
Visibility 10.0 miles
Clouds Scattered Clouds 5000 ft
Dew Point 46 °F
Humidity 44%
Rainfall 0.00 in
Snow Depth 0 in
UV 4 out of 12
Pollen 3.10 out of 12
Air Quality Not available.
Flu Activity Not available.
METAR KABR 211953Z AUTO 36006KT 10SM SCT050 21/08 A3025 RMK AO2 SLP242 T02060078 $

More Conditions Fewer Conditions

Pressure 30.25 in
Visibility 10.0 miles
Clouds Scattered Clouds 5000 ft
Dew Point 46 °F
Humidity 44%
Rainfall 0.00 in
Snow Depth 0 in
UV 4 out of 12
Pollen 3.10 out of 12
Air Quality Not available.
Flu Activity Not available.
METAR KABR 211953Z AUTO 36006KT 10SM SCT050 21/08 A3025 RMK AO2 SLP242 T02060078 $

More Conditions Fewer Conditions

10-Day Weather Forecast

Almanac

Astronomy

Sep. 21, 2014 Rise Set
Actual Time 7:19 AM CDT 7:33 PM CDT
Civil Twilight 6:50 AM CDT 8:02 PM CDT
Nautical Twilight 6:15 AM CDT 8:37 PM CDT
Astronomical Twilight 5:39 AM CDT 9:13 PM CDT
Moon 4:49 AM CDT 6:14 PM CDT
Length of Visible Light 13h 12m
Length of Day
12h 13m
Tomorrow will be 3m 10s shorter.
Waning Crescent, 5% of the Moon is Illuminated
Today
Waning Crescent
Sep 24
New
Oct 1
First Quarter
Oct 8
Full
Oct 15
Last Quarter

Today's Extremes

State Highs State Lows

Community

WunderPhotos

Upload Photos

1,755,243 photos uploaded!

Nearby

Snow Depth

Station Depth Elevation
Blind Park 0 in 6890 ft

Earthquake Activity

City Distance Mag. Time & Date
No recent earthquake activity has been reported nearby.
Minimum magnitude displayed is 2.5.

Coastal Water Temperatures

Place Temperature
No Stations Reporting

Nearby Weather Stations